sensor_id;sensor_type;location;lat;lon;timestamp;P1;durP1;ratioP1;P2;durP2;ratioP2
22705;SDS011;11520;51.198;4.468;2023-04-16T06:59:52;14.73;;;7.25;;
22705;SDS011;11520;51.198;4.468;2023-04-16T07:26:23;18.52;;;7.40;;
22705;SDS011;11520;51.198;4.468;2023-04-16T07:28:49;20.17;;;7.72;;
22705;SDS011;11520;51.198;4.468;2023-04-16T07:31:15;18.33;;;8.32;;
22705;SDS011;11520;51.198;4.468;2023-04-16T07:33:40;19.20;;;8.50;;
22705;SDS011;11520;51.198;4.468;2023-04-16T07:36:06;19.27;;;8.52;;
22705;SDS011;11520;51.198;4.468;2023-04-16T07:38:32;18.65;;;8.23;;
22705;SDS011;11520;51.198;4.468;2023-04-16T07:40:58;16.63;;;9.57;;
22705;SDS011;11520;51.198;4.468;2023-04-16T07:43:25;21.73;;;8.95;;
22705;SDS011;11520;51.198;4.468;2023-04-16T07:45:51;29.65;;;10.20;;
22705;SDS011;11520;51.198;4.468;2023-04-16T07:48:17;20.45;;;9.73;;
22705;SDS011;11520;51.198;4.468;2023-04-16T07:50:42;19.30;;;9.13;;
22705;SDS011;11520;51.198;4.468;2023-04-16T07:53:08;24.48;;;9.10;;
22705;SDS011;11520;51.198;4.468;2023-04-16T07:55:33;17.75;;;10.02;;
22705;SDS011;11520;51.198;4.468;2023-04-16T07:57:59;27.98;;;9.15;;
22705;SDS011;11520;51.198;4.468;2023-04-16T08:00:26;22.48;;;9.88;;
22705;SDS011;11520;51.198;4.468;2023-04-16T08:02:52;20.17;;;9.43;;
22705;SDS011;11520;51.198;4.468;2023-04-16T08:05:18;26.15;;;9.95;;
22705;SDS011;11520;51.198;4.468;2023-04-16T08:07:43;23.70;;;9.73;;
22705;SDS011;11520;51.198;4.468;2023-04-16T08:10:09;19.77;;;10.35;;
22705;SDS011;11520;51.198;4.468;2023-04-16T08:12:35;22.98;;;10.05;;
22705;SDS011;11520;51.198;4.468;2023-04-16T08:15:01;21.10;;;10.27;;
22705;SDS011;11520;51.198;4.468;2023-04-16T08:17:26;19.15;;;9.90;;
22705;SDS011;11520;51.198;4.468;2023-04-16T08:19:53;24.27;;;9.75;;
22705;SDS011;11520;51.198;4.468;2023-04-16T08:22:20;24.15;;;10.65;;
22705;SDS011;11520;51.198;4.468;2023-04-16T08:24:46;17.67;;;9.48;;
22705;SDS011;11520;51.198;4.468;2023-04-16T08:27:12;21.38;;;9.73;;
22705;SDS011;11520;51.198;4.468;2023-04-16T08:29:37;25.00;;;10.05;;
22705;SDS011;11520;51.198;4.468;2023-04-16T08:32:03;22.98;;;9.93;;
22705;SDS011;11520;51.198;4.468;2023-04-16T08:34:29;23.35;;;9.90;;
22705;SDS011;11520;51.198;4.468;2023-04-16T08:36:54;22.80;;;9.85;;
22705;SDS011;11520;51.198;4.468;2023-04-16T08:39:20;21.27;;;9.68;;
22705;SDS011;11520;51.198;4.468;2023-04-16T08:41:46;18.52;;;9.10;;
22705;SDS011;11520;51.198;4.468;2023-04-16T08:44:28;19.08;;;9.00;;
22705;SDS011;11520;51.198;4.468;2023-04-16T08:46:57;19.13;;;9.23;;
22705;SDS011;11520;51.198;4.468;2023-04-16T08:49:24;20.15;;;9.45;;
22705;SDS011;11520;51.198;4.468;2023-04-16T20:48:11;33.60;;;22.92;;
22705;SDS011;11520;51.198;4.468;2023-04-16T20:50:37;34.83;;;24.75;;
22705;SDS011;11520;51.198;4.468;2023-04-16T20:53:02;36.03;;;24.83;;
22705;SDS011;11520;51.198;4.468;2023-04-16T20:55:28;39.50;;;25.52;;
22705;SDS011;11520;51.198;4.468;2023-04-16T20:57:54;36.55;;;25.00;;
22705;SDS011;11520;51.198;4.468;2023-04-16T21:00:19;36.65;;;24.98;;
22705;SDS011;11520;51.198;4.468;2023-04-16T21:02:45;38.78;;;25.23;;
22705;SDS011;11520;51.198;4.468;2023-04-16T21:05:11;38.42;;;24.38;;
22705;SDS011;11520;51.198;4.468;2023-04-16T21:07:40;34.83;;;22.88;;
22705;SDS011;11520;51.198;4.468;2023-04-16T21:10:06;33.03;;;21.15;;
